Time;durP1;ratioP1;P1;durP2;ratioP2;P2;SDS_P1;SDS_P2;PMS_P1;PMS_P2;Temp;Humidity;BMP_temperature;BMP_pressure;BME280_temperature;BME280_humidity;BME280_pressure;Samples;Min_cycle;Max_cycle;Signal;HPM_P1;HPM_P2
2023/10/31 00:00:39;;;;;;;65.75;34.92;;;11.30;99.90;;;;;;4960943;28;20035;-74
2023/10/31 00:03:05;;;;;;;50.05;30.27;;;11.30;99.90;;;;;;4965018;28;20159;-73
2023/10/31 00:05:31;;;;;;;63.50;34.50;;;11.30;99.90;;;;;;4938919;28;20496;-73
2023/10/31 00:07:56;;;;;;;86.63;40.85;;;11.30;99.90;;;;;;4945428;28;20046;-73
2023/10/31 00:10:22;;;;;;;61.63;34.55;;;11.30;99.90;;;;;;4956779;28;20039;-73
2023/10/31 00:12:48;;;;;;;90.07;40.83;;;11.30;99.90;;;;;;4944111;28;20034;-73
2023/10/31 00:15:14;;;;;;;48.25;30.08;;;11.30;99.90;;;;;;4950358;28;20043;-73
2023/10/31 00:17:39;;;;;;;44.50;30.90;;;11.30;99.90;;;;;;4968430;28;20101;-73
2023/10/31 00:20:06;;;;;;;51.42;31.75;;;11.30;99.90;;;;;;4967088;28;20055;-73
2023/10/31 00:22:32;;;;;;;70.55;35.95;;;11.30;99.90;;;;;;4946143;28;20039;-73
2023/10/31 00:24:57;;;;;;;49.80;31.17;;;11.30;99.90;;;;;;4978807;28;20053;-73
2023/10/31 00:27:23;;;;;;;59.47;34.50;;;11.30;99.90;;;;;;4957070;28;20034;-73
2023/10/31 00:29:49;;;;;;;39.38;27.88;;;11.30;99.90;;;;;;4934877;28;20039;-73
2023/10/31 00:32:15;;;;;;;65.75;35.40;;;11.30;99.90;;;;;;4957478;28;20050;-73
2023/10/31 00:34:40;;;;;;;56.15;34.05;;;11.30;99.90;;;;;;4972750;28;20130;-73
2023/10/31 00:37:06;;;;;;;64.97;35.83;;;11.30;99.90;;;;;;4924749;28;20531;-73
2023/10/31 00:39:33;;;;;;;48.28;30.70;;;11.30;99.90;;;;;;4950007;28;20537;-73
2023/10/31 00:41:59;;;;;;;58.15;32.88;;;11.30;99.90;;;;;;4964459;28;20058;-74
2023/10/31 00:44:25;;;;;;;58.50;33.35;;;11.30;99.90;;;;;;4949448;28;20031;-74
2023/10/31 00:46:51;;;;;;;71.00;38.05;;;11.30;99.90;;;;;;4936137;28;20046;-74
2023/10/31 00:49:16;;;;;;;88.30;38.83;;;11.30;99.90;;;;;;4944749;28;20481;-74
2023/10/31 00:51:42;;;;;;;80.88;39.53;;;11.30;99.90;;;;;;4927901;28;20039;-74
2023/10/31 00:54:08;;;;;;;55.63;33.28;;;11.30;99.90;;;;;;4952152;28;20047;-74
2023/10/31 00:56:34;;;;;;;61.28;31.63;;;11.30;99.90;;;;;;4979025;28;20043;-73
2023/10/31 00:59:00;;;;;;;59.58;32.90;;;11.30;99.90;;;;;;4944024;28;20401;-73
2023/10/31 01:01:26;;;;;;;67.00;36.05;;;11.40;99.90;;;;;;4987922;28;20039;-74
2023/10/31 01:03:51;;;;;;;57.33;33.60;;;11.40;99.90;;;;;;4926734;28;20050;-74
2023/10/31 01:06:17;;;;;;;93.78;42.28;;;11.40;99.90;;;;;;4941544;28;20585;-74
2023/10/31 01:08:43;;;;;;;114.78;46.90;;;11.40;99.90;;;;;;4967060;28;21111;-74
2023/10/31 01:11:08;;;;;;;61.72;33.38;;;11.30;99.90;;;;;;4946589;28;20047;-74
2023/10/31 01:13:34;;;;;;;102.78;43.28;;;11.30;99.90;;;;;;4926568;28;20046;-74
2023/10/31 01:16:00;;;;;;;54.47;30.63;;;11.30;99.90;;;;;;4961332;28;20046;-74
2023/10/31 01:18:25;;;;;;;54.65;32.53;;;11.40;99.90;;;;;;4943566;28;20137;-75
2023/10/31 01:20:51;;;;;;;96.45;42.00;;;11.40;99.90;;;;;;4945579;28;20097;-75
2023/10/31 01:23:17;;;;;;;69.15;37.53;;;11.40;99.90;;;;;;4942855;28;20039;-75
2023/10/31 01:25:43;;;;;;;65.85;34.00;;;11.40;99.90;;;;;;4951697;28;20038;-74
2023/10/31 01:28:08;;;;;;;45.58;29.63;;;11.40;99.90;;;;;;4948633;28;20039;-75
2023/10/31 01:30:34;;;;;;;63.55;33.63;;;11.40;99.90;;;;;;4971100;28;20101;-74
2023/10/31 01:33:00;;;;;;;47.53;29.55;;;11.30;99.90;;;;;;4938664;28;20411;-74
2023/10/31 01:35:25;;;;;;;60.55;33.88;;;11.40;99.90;;;;;;4930537;28;20046;-74
2023/10/31 01:37:51;;;;;;;53.40;30.58;;;11.40;99.90;;;;;;4975885;28;21105;-74
2023/10/31 01:40:17;;;;;;;76.97;35.60;;;11.40;99.90;;;;;;4965455;28;20043;-75
2023/10/31 01:42:42;;;;;;;55.47;31.42;;;11.40;99.90;;;;;;4958163;28;20046;-74
2023/10/31 01:45:08;;;;;;;86.90;38.78;;;11.40;99.90;;;;;;4941046;28;20042;-74
2023/10/31 01:47:34;;;;;;;42.47;28.15;;;11.40;99.90;;;;;;4956300;28;20125;-74
2023/10/31 01:50:00;;;;;;;51.90;30.52;;;11.40;99.90;;;;;;4947195;28;20544;-74
2023/10/31 01:52:26;;;;;;;45.08;28.98;;;11.40;99.90;;;;;;4956826;28;20039;-74
2023/10/31 01:54:52;;;;;;;48.25;30.83;;;11.40;99.90;;;;;;4945047;28;20410;-74
2023/10/31 01:57:22;;;;;;;107.32;41.85;;;11.40;99.90;;;;;;4958619;28;20123;-74
2023/10/31 01:59:48;;;;;;;26.23;18.13;;;11.40;99.90;;;;;;4953110;28;20200;-74
2023/10/31 02:02:15;;;;;;;6.80;4.93;;;11.40;99.90;;;;;;4963927;28;20737;-74
2023/10/31 02:04:40;;;;;;;3.50;2.50;;;11.20;99.90;;;;;;4932517;28;20031;-74
2023/10/31 02:07:06;;;;;;;1.95;1.80;;;11.00;99.90;;;;;;4960468;28;20087;-74
2023/10/31 02:09:32;;;;;;;1.20;1.10;;;10.90;99.90;;;;;;4956285;28;20512;-74
2023/10/31 02:11:58;;;;;;;1.63;1.00;;;10.70;99.90;;;;;;4913384;28;20140;-75
2023/10/31 02:14:24;;;;;;;0.63;0.57;;;10.60;99.90;;;;;;4957301;28;20071;-74
2023/10/31 02:16:51;;;;;;;2.05;0.70;;;10.50;99.90;;;;;;4956587;28;20153;-75
2023/10/31 02:19:20;;;;;;;3.38;0.80;;;10.50;99.90;;;;;;4930457;28;20074;-74
2023/10/31 02:21:45;;;;;;;0.63;0.60;;;10.40;99.90;;;;;;4962610;28;20060;-74
2023/10/31 02:24:11;;;;;;;1.67;0.50;;;10.30;99.90;;;;;;4930393;28;20166;-74
2023/10/31 02:26:37;;;;;;;0.60;0.60;;;10.30;99.90;;;;;;4938176;28;20043;-74
2023/10/31 02:29:04;;;;;;;1.48;0.75;;;10.20;99.90;;;;;;4968276;28;20519;-74
2023/10/31 02:31:30;;;;;;;2.50;0.68;;;10.20;99.90;;;;;;4942747;28;20101;-74
2023/10/31 02:33:55;;;;;;;3.35;0.80;;;10.10;99.90;;;;;;4946568;28;20042;-74
2023/10/31 02:36:21;;;;;;;3.22;1.17;;;10.00;99.90;;;;;;4952697;28;20518;-74
2023/10/31 02:38:47;;;;;;;1.50;0.70;;;10.00;99.90;;;;;;4964126;28;20038;-74
2023/10/31 02:41:13;;;;;;;5.63;1.40;;;9.90;99.90;;;;;;4958767;28;20477;-74
2023/10/31 02:43:40;;;;;;;6.22;1.10;;;9.90;99.90;;;;;;4943026;28;20743;-74
2023/10/31 02:46:06;;;;;;;3.60;1.23;;;9.80;99.90;;;;;;4960714;28;20500;-74
2023/10/31 02:48:38;;;;;;;4.05;1.48;;;9.80;99.90;;;;;;4972284;28;20031;-74
2023/10/31 02:51:04;;;;;;;2.17;1.50;;;9.80;99.90;;;;;;4966798;28;20395;-74
2023/10/31 02:53:30;;;;;;;6.65;2.10;;;9.80;99.90;;;;;;4951783;28;20042;-74
2023/10/31 02:55:56;;;;;;;2.35;1.50;;;9.70;99.90;;;;;;4945698;28;20043;-74
2023/10/31 02:58:21;;;;;;;5.63;2.10;;;9.70;99.90;;;;;;4942659;28;20392;-74
2023/10/31 03:00:47;;;;;;;4.53;2.30;;;9.70;99.90;;;;;;4947823;28;20038;-74
2023/10/31 03:03:13;;;;;;;3.15;2.10;;;9.70;99.90;;;;;;4977044;28;20085;-74
2023/10/31 03:05:39;;;;;;;6.18;2.22;;;9.60;99.90;;;;;;4964424;28;20035;-74
2023/10/31 03:08:04;;;;;;;3.10;1.98;;;9.60;99.90;;;;;;4971525;28;20066;-74
2023/10/31 03:10:30;;;;;;;5.22;2.03;;;9.60;99.90;;;;;;4964747;28;20043;-74
2023/10/31 03:12:56;;;;;;;3.88;1.88;;;9.60;99.90;;;;;;4961502;28;20043;-74
2023/10/31 03:15:21;;;;;;;5.13;1.98;;;9.50;99.90;;;;;;4959055;28;20497;-74
2023/10/31 03:17:47;;;;;;;4.35;2.08;;;9.50;99.90;;;;;;4957889;28;20055;-74
2023/10/31 03:20:13;;;;;;;7.80;2.38;;;9.50;99.90;;;;;;4964166;28;20062;-74
2023/10/31 03:22:38;;;;;;;7.18;2.17;;;9.50;99.90;;;;;;4942681;28;20043;-74
2023/10/31 03:25:05;;;;;;;6.57;2.38;;;9.40;99.90;;;;;;4927975;28;20485;-74
2023/10/31 03:27:30;;;;;;;4.45;1.83;;;9.40;99.90;;;;;;4926995;28;20512;-73
2023/10/31 03:29:56;;;;;;;5.07;1.95;;;9.40;99.90;;;;;;4932815;28;20158;-74
2023/10/31 03:32:22;;;;;;;2.53;1.55;;;9.40;99.90;;;;;;4937094;28;20039;-74
2023/10/31 03:34:47;;;;;;;5.80;2.10;;;9.40;99.90;;;;;;4959379;28;20039;-73
2023/10/31 03:37:13;;;;;;;7.80;2.70;;;9.40;99.90;;;;;;4940526;28;20034;-74
2023/10/31 03:39:39;;;;;;;5.80;3.40;;;9.40;99.90;;;;;;4966176;28;20439;-74
2023/10/31 03:42:05;;;;;;;7.43;4.18;;;9.40;99.90;;;;;;4969878;28;20517;-74
2023/10/31 03:44:31;;;;;;;7.47;4.47;;;9.40;99.90;;;;;;4969104;28;20039;-74
2023/10/31 03:46:56;;;;;;;11.40;5.45;;;9.40;99.90;;;;;;4981548;28;20038;-74
2023/10/31 03:49:22;;;;;;;9.88;5.45;;;9.40;99.90;;;;;;4962067;28;20034;-74
2023/10/31 03:51:48;;;;;;;15.90;5.72;;;9.40;99.90;;;;;;4947929;28;20050;-74
2023/10/31 03:54:14;;;;;;;12.48;6.43;;;9.40;99.90;;;;;;4945181;28;20043;-74
2023/10/31 03:56:40;;;;;;;16.65;6.10;;;9.40;99.90;;;;;;4947805;28;20339;-73
2023/10/31 03:59:06;;;;;;;11.52;6.00;;;9.40;99.90;;;;;;4991946;28;20129;-74
2023/10/31 04:01:32;;;;;;;8.05;4.68;;;9.40;99.90;;;;;;4943926;28;20070;-74
2023/10/31 04:03:57;;;;;;;12.50;5.15;;;9.40;99.90;;;;;;4937914;28;20067;-74
2023/10/31 04:06:23;;;;;;;10.55;5.28;;;9.40;99.90;;;;;;4955061;28;20070;-74
2023/10/31 04:08:49;;;;;;;9.10;4.85;;;9.40;99.90;;;;;;4920454;28;20043;-74
2023/10/31 04:11:15;;;;;;;8.38;4.70;;;9.40;99.90;;;;;;4953448;28;20031;-73
2023/10/31 04:13:40;;;;;;;12.63;4.50;;;9.40;99.90;;;;;;4962350;28;20074;-74
2023/10/31 04:16:06;;;;;;;10.93;4.85;;;9.40;99.90;;;;;;4962584;28;20400;-74
2023/10/31 04:18:32;;;;;;;10.85;4.43;;;9.40;99.90;;;;;;4979777;28;20069;-74
2023/10/31 04:20:58;;;;;;;9.65;4.60;;;9.40;99.90;;;;;;4946678;28;20049;-74
2023/10/31 04:23:23;;;;;;;19.13;5.32;;;9.40;99.90;;;;;;4938425;28;20039;-74
2023/10/31 04:25:52;;;;;;;11.40;4.90;;;9.40;99.90;;;;;;4958451;28;20517;-74
2023/10/31 04:28:18;;;;;;;13.52;6.28;;;9.40;99.90;;;;;;4947353;28;20045;-74
2023/10/31 04:30:44;;;;;;;9.85;5.97;;;9.40;99.90;;;;;;4946064;28;20046;-74
2023/10/31 04:33:10;;;;;;;12.32;5.57;;;9.40;99.90;;;;;;4978635;28;20507;-74
2023/10/31 04:35:35;;;;;;;8.23;5.18;;;9.40;99.90;;;;;;4952082;28;20113;-74
2023/10/31 04:38:01;;;;;;;10.90;5.30;;;9.40;99.90;;;;;;4941450;28;20081;-74
2023/10/31 04:40:27;;;;;;;11.27;5.65;;;9.40;99.90;;;;;;4963354;28;20559;-74
2023/10/31 04:42:53;;;;;;;9.23;5.45;;;9.40;99.90;;;;;;4967847;28;20555;-74
2023/10/31 04:45:19;;;;;;;7.70;5.13;;;9.40;99.90;;;;;;4930477;28;20468;-73
2023/10/31 04:47:45;;;;;;;8.02;4.68;;;9.50;99.90;;;;;;4973107;28;20066;-74
2023/10/31 04:50:10;;;;;;;5.43;4.05;;;9.50;99.90;;;;;;4928047;28;20035;-73
2023/10/31 04:52:36;;;;;;;5.68;3.40;;;9.40;99.90;;;;;;4937212;28;20038;-74
2023/10/31 04:55:02;;;;;;;5.80;3.92;;;9.40;99.90;;;;;;4942944;28;20043;-74
2023/10/31 04:57:27;;;;;;;3.72;3.08;;;9.40;99.90;;;;;;4926581;28;20046;-74
2023/10/31 04:59:54;;;;;;;6.10;3.53;;;9.40;99.90;;;;;;4969927;28;20039;-74
2023/10/31 05:02:23;;;;;;;10.98;2.60;;;9.40;99.90;;;;;;4938291;28;20067;-74
2023/10/31 05:04:50;;;;;;;4.40;2.60;;;9.40;99.90;;;;;;4954139;28;20456;-74
2023/10/31 05:07:19;;;;;;;3.55;1.95;;;9.40;99.90;;;;;;4963248;28;20035;-74
2023/10/31 05:09:45;;;;;;;2.78;2.10;;;9.50;99.90;;;;;;4957006;28;20299;-74
2023/10/31 05:12:11;;;;;;;6.22;2.75;;;9.50;99.90;;;;;;4926934;28;20046;-74
2023/10/31 05:14:37;;;;;;;5.20;3.22;;;9.50;99.90;;;;;;4965692;28;20054;-74
2023/10/31 05:17:03;;;;;;;4.38;2.88;;;9.50;99.90;;;;;;4954367;28;20074;-74
2023/10/31 05:19:30;;;;;;;4.63;2.67;;;9.50;99.90;;;;;;4959627;28;20090;-74
2023/10/31 05:21:55;;;;;;;6.93;3.17;;;9.50;99.90;;;;;;4967613;28;20039;-74
2023/10/31 05:24:21;;;;;;;5.82;2.30;;;9.50;99.90;;;;;;4944598;28;20411;-74
2023/10/31 05:26:47;;;;;;;6.75;2.80;;;9.40;99.90;;;;;;4958792;28;20316;-74
2023/10/31 05:29:12;;;;;;;9.02;3.00;;;9.40;99.90;;;;;;4953793;28;20058;-74
2023/10/31 05:31:38;;;;;;;5.15;2.78;;;9.50;99.90;;;;;;4945177;28;20039;-74
2023/10/31 05:34:04;;;;;;;9.80;3.13;;;9.50;99.90;;;;;;4943422;28;20084;-74
2023/10/31 05:36:30;;;;;;;5.45;2.72;;;9.40;99.90;;;;;;4954387;28;20412;-74
2023/10/31 05:38:56;;;;;;;5.50;3.03;;;9.40;99.90;;;;;;4947570;28;20122;-74
2023/10/31 05:41:22;;;;;;;6.97;2.97;;;9.70;99.90;;;;;;4956076;28;21337;-74
2023/10/31 05:43:47;;;;;;;6.88;2.75;;;9.40;99.90;;;;;;4961007;28;20119;-74
2023/10/31 05:46:14;;;;;;;5.45;3.38;;;9.40;99.90;;;;;;4936783;28;20038;-73
2023/10/31 05:48:41;;;;;;;7.70;3.10;;;9.40;99.90;;;;;;4940846;28;20039;-73
2023/10/31 05:51:13;;;;;;;10.18;4.10;;;9.40;99.90;;;;;;4920736;28;20043;-74
2023/10/31 05:53:39;;;;;;;;;;;9.40;99.90;;;;;;4953703;28;20043;-73
2023/10/31 05:56:07;;;;;;;12.40;4.95;;;9.40;99.90;;;;;;4947379;28;19918;-73
2023/10/31 05:58:33;;;;;;;9.07;5.18;;;9.40;99.90;;;;;;4970805;28;20574;-73
2023/10/31 06:00:58;;;;;;;6.35;4.40;;;9.40;99.90;;;;;;4977947;28;20072;-74
2023/10/31 06:03:24;;;;;;;7.63;4.32;;;9.40;99.90;;;;;;4946653;28;20093;-74
2023/10/31 06:05:50;;;;;;;11.75;3.88;;;9.40;99.90;;;;;;4943262;28;20051;-73
2023/10/31 06:08:15;;;;;;;9.43;4.22;;;9.40;99.90;;;;;;4955199;28;20039;-74
2023/10/31 06:10:41;;;;;;;7.53;3.90;;;9.40;99.90;;;;;;4957035;28;20484;-74
2023/10/31 06:13:07;;;;;;;10.05;3.90;;;9.40;99.90;;;;;;4962260;28;20038;-73
2023/10/31 06:15:32;;;;;;;7.35;3.72;;;9.40;99.90;;;;;;4948416;28;20412;-73
2023/10/31 06:17:58;;;;;;;9.15;4.22;;;9.40;99.90;;;;;;4949438;28;20055;-73
2023/10/31 06:20:24;;;;;;;8.27;4.47;;;9.40;99.90;;;;;;4940604;28;20058;-73
2023/10/31 06:22:49;;;;;;;11.57;5.28;;;9.40;99.90;;;;;;4972601;28;20109;-73
2023/10/31 06:25:15;;;;;;;10.50;6.10;;;9.40;99.90;;;;;;4939158;28;20069;-74
2023/10/31 06:27:41;;;;;;;14.07;6.65;;;9.40;99.90;;;;;;4917418;28;20034;-73
2023/10/31 06:30:07;;;;;;;9.55;6.43;;;9.40;99.90;;;;;;4956670;28;20130;-73
2023/10/31 06:32:32;;;;;;;9.20;4.85;;;9.40;99.90;;;;;;4972186;28;20534;-73
2023/10/31 06:34:58;;;;;;;8.07;4.75;;;9.40;99.90;;;;;;4954499;28;20137;-73
2023/10/31 06:37:24;;;;;;;17.27;5.47;;;9.40;99.90;;;;;;4948713;28;20070;-73
2023/10/31 06:39:50;;;;;;;6.45;4.00;;;9.40;99.90;;;;;;4955283;28;20420;-74
2023/10/31 06:42:15;;;;;;;8.63;4.07;;;9.40;99.90;;;;;;4955196;28;20043;-73
2023/10/31 06:44:41;;;;;;;9.02;4.32;;;9.40;99.90;;;;;;4965261;28;20037;-73
2023/10/31 06:47:07;;;;;;;10.90;4.90;;;9.40;99.90;;;;;;4954547;28;20046;-74
2023/10/31 06:49:32;;;;;;;7.95;4.90;;;9.40;99.90;;;;;;4956098;28;20126;-74
2023/10/31 06:51:58;;;;;;;8.90;4.95;;;9.30;99.90;;;;;;4939155;28;20082;-74
2023/10/31 06:54:24;;;;;;;9.32;5.35;;;9.30;99.90;;;;;;4968676;28;20051;-75
2023/10/31 06:56:49;;;;;;;10.55;5.10;;;9.40;99.90;;;;;;4946329;28;20050;-74
2023/10/31 06:59:15;;;;;;;8.93;5.85;;;9.40;99.90;;;;;;4948394;28;20039;-74
2023/10/31 07:01:41;;;;;;;9.50;5.57;;;9.40;99.90;;;;;;4934269;28;20042;-74
2023/10/31 07:04:07;;;;;;;9.27;6.13;;;9.40;99.90;;;;;;4952890;28;20047;-74
2023/10/31 07:06:32;;;;;;;9.20;6.07;;;9.40;99.90;;;;;;4938640;28;20046;-74
2023/10/31 07:09:00;;;;;;;11.43;6.80;;;9.40;99.90;;;;;;4953542;28;20042;-74
2023/10/31 07:11:25;;;;;;;10.20;7.13;;;9.40;99.90;;;;;;4947459;28;20347;-73
2023/10/31 07:13:51;;;;;;;10.25;6.30;;;9.40;99.90;;;;;;4955041;28;20046;-73
2023/10/31 07:16:17;;;;;;;7.28;6.07;;;9.40;99.90;;;;;;4969273;28;20046;-73
2023/10/31 07:18:42;;;;;;;10.07;5.50;;;9.40;99.90;;;;;;4939499;28;20081;-73
2023/10/31 07:21:08;;;;;;;9.15;5.97;;;9.40;99.90;;;;;;4971015;28;20318;-73
2023/10/31 07:23:34;;;;;;;7.03;5.05;;;9.40;99.90;;;;;;4971647;28;20043;-74
2023/10/31 07:25:59;;;;;;;8.82;5.53;;;9.40;99.90;;;;;;4935457;29;20513;-73
2023/10/31 07:28:25;;;;;;;10.32;5.28;;;9.50;99.90;;;;;;4947112;28;20444;-73
2023/10/31 07:30:50;;;;;;;10.32;5.28;;;9.40;99.90;;;;;;4933354;28;20409;-73
2023/10/31 07:33:16;;;;;;;9.32;5.45;;;9.40;99.90;;;;;;4952180;28;20591;-72
2023/10/31 07:35:42;;;;;;;15.40;6.28;;;9.50;99.90;;;;;;4945382;28;20074;-74
2023/10/31 07:38:07;;;;;;;9.85;6.07;;;9.50;99.90;;;;;;4941127;28;20477;-75
2023/10/31 07:40:33;;;;;;;11.77;7.15;;;9.50;99.90;;;;;;4953621;28;20753;-75
2023/10/31 07:42:59;;;;;;;13.10;7.47;;;9.50;99.90;;;;;;4964039;28;20386;-75
2023/10/31 07:45:24;;;;;;;11.05;8.00;;;9.50;99.90;;;;;;4944716;28;20370;-75
2023/10/31 07:47:50;;;;;;;11.43;7.78;;;9.50;99.90;;;;;;4957344;28;20492;-75
2023/10/31 07:50:16;;;;;;;14.15;9.48;;;9.50;99.90;;;;;;4951560;28;20035;-75
2023/10/31 07:52:43;;;;;;;14.77;9.38;;;9.60;99.90;;;;;;4971187;28;20034;-75
2023/10/31 07:55:11;;;;;;;20.85;10.63;;;9.70;99.90;;;;;;4951569;28;20125;-73
2023/10/31 07:57:37;;;;;;;14.90;10.02;;;9.60;99.90;;;;;;4954472;28;20121;-75
2023/10/31 08:00:03;;;;;;;13.52;9.30;;;9.60;99.90;;;;;;4970892;28;20046;-73
2023/10/31 08:02:29;;;;;;;12.82;9.40;;;9.60;99.90;;;;;;4969723;28;20043;-76
2023/10/31 08:04:54;;;;;;;14.02;8.70;;;9.70;99.90;;;;;;4970251;28;20731;-73
2023/10/31 08:07:20;;;;;;;15.63;9.90;;;9.70;99.90;;;;;;4948506;28;20058;-73
2023/10/31 08:09:46;;;;;;;14.70;9.90;;;9.80;99.90;;;;;;4970854;28;20038;-73
2023/10/31 08:12:11;;;;;;;13.68;9.80;;;9.80;99.90;;;;;;4954401;28;20117;-73
2023/10/31 08:14:37;;;;;;;12.98;8.70;;;9.80;99.90;;;;;;4953746;28;20112;-73
2023/10/31 08:17:03;;;;;;;11.70;8.52;;;9.90;99.90;;;;;;4950720;28;20058;-74
2023/10/31 08:19:29;;;;;;;12.30;8.25;;;9.90;99.90;;;;;;4968496;28;20655;-74
2023/10/31 08:21:54;;;;;;;13.65;8.18;;;10.00;99.90;;;;;;4962628;28;20047;-73
2023/10/31 08:24:20;;;;;;;11.82;8.25;;;10.10;99.90;;;;;;4950715;28;20062;-74
2023/10/31 08:26:46;;;;;;;12.80;7.68;;;10.10;99.90;;;;;;4934788;28;20173;-73
2023/10/31 08:29:11;;;;;;;12.10;8.50;;;10.10;99.90;;;;;;4949692;28;20515;-73
2023/10/31 08:31:38;;;;;;;10.45;7.53;;;10.20;99.90;;;;;;4949761;28;20043;-73
2023/10/31 08:34:03;;;;;;;12.32;7.63;;;10.20;99.90;;;;;;4919957;28;20042;-74
2023/10/31 08:36:29;;;;;;;10.43;7.05;;;10.20;99.90;;;;;;4936550;28;20105;-72
2023/10/31 08:38:55;;;;;;;9.18;6.35;;;10.30;99.90;;;;;;4931237;28;20077;-73
2023/10/31 08:41:21;;;;;;;8.52;5.70;;;10.30;99.90;;;;;;4950813;28;20134;-72
2023/10/31 08:43:47;;;;;;;9.40;5.05;;;10.30;99.90;;;;;;4937804;28;20073;-73
2023/10/31 08:46:13;;;;;;;10.40;5.03;;;10.40;99.90;;;;;;4949665;28;20444;-73
2023/10/31 08:48:39;;;;;;;6.18;4.10;;;10.40;99.90;;;;;;4950648;28;20053;-73
2023/10/31 08:51:04;;;;;;;7.32;3.90;;;10.50;99.90;;;;;;4931123;28;20501;-74
2023/10/31 08:53:30;;;;;;;8.48;4.97;;;11.30;99.90;;;;;;4934421;28;20085;-72
2023/10/31 08:55:56;;;;;;;8.85;4.63;;;10.60;99.90;;;;;;4935199;28;20041;-73
2023/10/31 08:58:22;;;;;;;6.55;4.00;;;10.70;99.90;;;;;;4950845;28;20073;-73
2023/10/31 09:00:47;;;;;;;7.18;3.40;;;10.70;99.90;;;;;;4949844;28;20046;-73
2023/10/31 09:03:13;;;;;;;6.78;3.53;;;10.80;99.90;;;;;;4936561;28;20050;-73
2023/10/31 09:05:40;;;;;;;8.32;3.20;;;10.90;99.90;;;;;;4949571;28;20099;-73
2023/10/31 09:08:06;;;;;;;4.75;2.30;;;10.90;99.90;;;;;;4969713;28;20050;-73
2023/10/31 09:10:33;;;;;;;6.75;2.25;;;10.90;99.90;;;;;;4932326;28;20042;-73
2023/10/31 09:12:59;;;;;;;6.53;2.25;;;10.90;99.90;;;;;;4936294;28;20493;-74
2023/10/31 09:15:25;;;;;;;5.68;2.58;;;10.90;99.90;;;;;;4951004;28;20054;-74
2023/10/31 09:17:50;;;;;;;5.38;2.15;;;10.90;99.90;;;;;;4935998;28;20055;-73
2023/10/31 09:20:16;;;;;;;3.85;1.95;;;10.90;99.90;;;;;;4935186;28;20042;-73
2023/10/31 09:22:42;;;;;;;3.00;1.38;;;10.90;99.90;;;;;;4951422;28;20039;-74
2023/10/31 09:25:07;;;;;;;6.03;1.85;;;10.90;99.90;;;;;;4920518;28;20039;-74
2023/10/31 09:27:33;;;;;;;5.28;2.05;;;10.90;99.90;;;;;;4936013;28;20062;-74
2023/10/31 09:29:59;;;;;;;1.95;1.23;;;10.90;99.90;;;;;;4935668;28;20050;-74
2023/10/31 09:32:24;;;;;;;3.75;1.48;;;10.90;99.90;;;;;;4919990;28;20119;-74
2023/10/31 09:34:50;;;;;;;5.20;2.00;;;10.90;99.90;;;;;;4935663;28;20051;-74
2023/10/31 09:37:16;;;;;;;4.05;1.45;;;11.00;99.90;;;;;;4921135;28;20122;-74
2023/10/31 09:39:42;;;;;;;7.10;1.50;;;11.00;99.90;;;;;;4918110;28;20121;-73
2023/10/31 09:42:08;;;;;;;5.25;1.60;;;11.10;99.90;;;;;;4952478;28;20057;-73
2023/10/31 09:44:34;;;;;;;5.22;1.42;;;11.10;99.90;;;;;;4952934;28;20096;-73
2023/10/31 09:47:01;;;;;;;3.65;1.30;;;11.20;99.90;;;;;;4940895;28;20504;-74
2023/10/31 09:49:28;;;;;;;4.07;1.40;;;11.10;99.90;;;;;;4941529;28;20540;-74
2023/10/31 09:51:54;;;;;;;4.57;3.25;;;11.10;99.90;;;;;;4938311;28;20043;-74
2023/10/31 09:54:20;;;;;;;3.97;1.50;;;11.10;99.90;;;;;;4954533;28;20046;-74
2023/10/31 09:56:45;;;;;;;4.78;1.65;;;11.10;99.90;;;;;;4940827;28;20420;-74
2023/10/31 09:59:13;;;;;;;3.05;1.17;;;11.10;99.90;;;;;;4940210;28;20078;-74
2023/10/31 10:01:39;;;;;;;4.95;1.70;;;11.00;99.90;;;;;;4953744;28;20044;-75
2023/10/31 10:04:05;;;;;;;5.13;1.45;;;11.00;99.90;;;;;;4955472;28;20050;-74
2023/10/31 10:06:32;;;;;;;4.45;1.30;;;11.00;99.90;;;;;;4939837;28;20393;-75
2023/10/31 10:08:57;;;;;;;4.05;1.20;;;10.90;99.90;;;;;;4940728;28;20278;-75
2023/10/31 10:11:24;;;;;;;3.22;1.15;;;10.80;99.90;;;;;;4939591;28;20039;-75
2023/10/31 10:13:52;;;;;;;4.63;1.35;;;10.80;99.90;;;;;;4954055;28;20532;-75
2023/10/31 10:16:32;;;;;;;5.22;1.23;;;10.90;99.90;;;;;;4949231;28;20079;-74
2023/10/31 10:19:09;;;;;;;5.30;1.40;;;10.90;99.90;;;;;;4908473;28;20047;-73
2023/10/31 10:21:54;;;;;;;3.42;1.40;;;10.90;99.90;;;;;;4926122;28;20035;-71
2023/10/31 10:24:21;;;;;;;5.03;1.10;;;10.90;99.90;;;;;;4969139;28;20058;-72
2023/10/31 10:26:48;;;;;;;5.20;1.48;;;10.90;99.90;;;;;;4925244;28;20042;-74
2023/10/31 10:29:14;;;;;;;3.35;1.30;;;10.90;99.90;;;;;;4954526;28;20039;-74
2023/10/31 10:31:40;;;;;;;2.25;0.90;;;10.90;99.90;;;;;;4952368;28;20035;-74
2023/10/31 10:34:07;;;;;;;2.75;0.90;;;10.90;99.90;;;;;;4922179;28;20152;-75
2023/10/31 10:36:33;;;;;;;4.38;1.00;;;10.90;99.90;;;;;;4937557;28;20046;-75
2023/10/31 10:38:59;;;;;;;4.82;0.98;;;10.90;99.90;;;;;;4955911;28;20502;-75
2023/10/31 10:41:28;;;;;;;1.58;0.90;;;10.90;99.90;;;;;;4928747;28;20481;-74
2023/10/31 10:44:06;;;;;;;0.77;0.77;;;10.90;99.90;;;;;;4968863;28;20570;-72
2023/10/31 10:46:36;;;;;;;2.55;0.77;;;10.90;99.90;;;;;;4972214;28;20088;-72
2023/10/31 10:49:07;;;;;;;2.40;1.10;;;10.90;99.90;;;;;;4972291;28;20121;-72
2023/10/31 10:51:51;;;;;;;8.25;1.30;;;10.90;99.90;;;;;;4972080;28;20081;-73
2023/10/31 10:54:34;;;;;;;2.33;1.10;;;10.90;99.90;;;;;;4971973;28;20043;-73
2023/10/31 10:57:20;;;;;;;2.25;1.17;;;10.90;99.90;;;;;;4956032;28;20069;-73
2023/10/31 10:59:50;;;;;;;3.33;1.38;;;10.90;99.90;;;;;;4972229;28;20186;-73
2023/10/31 11:02:17;;;;;;;4.00;1.63;;;10.80;99.90;;;;;;4972002;28;20094;-73
2023/10/31 11:04:43;;;;;;;5.90;1.70;;;10.80;99.90;;;;;;4940494;28;20451;-73
2023/10/31 11:07:10;;;;;;;3.20;1.20;;;10.80;99.90;;;;;;4971873;28;20043;-73
2023/10/31 11:09:36;;;;;;;3.53;1.60;;;10.80;99.90;;;;;;4972366;28;20118;-73
2023/10/31 11:12:03;;;;;;;3.63;1.17;;;10.80;99.90;;;;;;4955768;28;20043;-73
2023/10/31 11:14:30;;;;;;;5.05;1.50;;;10.80;99.90;;;;;;4956407;28;20046;-73
2023/10/31 11:17:02;;;;;;;4.47;1.20;;;10.80;99.90;;;;;;4955827;28;20137;-73
2023/10/31 11:19:28;;;;;;;6.57;1.48;;;10.80;99.90;;;;;;4972128;28;20047;-73
2023/10/31 11:22:05;;;;;;;3.50;1.20;;;10.80;99.90;;;;;;4971752;28;20074;-73
2023/10/31 11:24:37;;;;;;;4.43;1.30;;;10.80;99.90;;;;;;4971561;28;20202;-73
2023/10/31 11:27:05;;;;;;;6.07;1.60;;;10.80;99.90;;;;;;4955690;28;20184;-73
2023/10/31 11:29:32;;;;;;;2.55;1.40;;;10.90;99.90;;;;;;4971860;28;20038;-73
2023/10/31 11:31:57;;;;;;;7.65;1.75;;;10.90;99.90;;;;;;4955742;28;20035;-73
2023/10/31 11:34:26;;;;;;;2.53;1.33;;;11.00;99.90;;;;;;4971427;28;20519;-73
2023/10/31 11:36:52;;;;;;;5.10;1.50;;;11.00;99.90;;;;;;4971596;28;20043;-73
2023/10/31 11:39:26;;;;;;;2.45;1.10;;;11.10;99.90;;;;;;4936614;29;20049;-73
2023/10/31 11:41:56;;;;;;;4.47;1.50;;;11.10;99.90;;;;;;4959182;28;20038;-73
2023/10/31 11:44:31;;;;;;;3.55;1.38;;;11.10;99.90;;;;;;4971430;28;20067;-73
2023/10/31 11:46:59;;;;;;;6.55;1.75;;;11.10;99.90;;;;;;4955300;28;20522;-73
2023/10/31 11:49:54;;;;;;;5.45;1.80;;;11.00;99.90;;;;;;4955018;28;20043;-73
2023/10/31 11:52:20;;;;;;;6.80;2.35;;;11.00;99.90;;;;;;4966801;28;20126;-73
2023/10/31 11:54:46;;;;;;;5.40;2.03;;;11.00;99.90;;;;;;4954989;28;20193;-73
2023/10/31 11:57:27;;;;;;;5.88;1.63;;;11.00;99.90;;;;;;4971073;28;20050;-73
2023/10/31 11:59:53;;;;;;;6.80;1.70;;;10.90;99.90;;;;;;4971269;28;20050;-73
2023/10/31 12:02:19;;;;;;;7.60;2.10;;;10.90;99.90;;;;;;4970744;28;20043;-73
2023/10/31 12:04:44;;;;;;;8.63;1.98;;;10.90;99.90;;;;;;4939494;28;20041;-74
2023/10/31 12:07:10;;;;;;;4.20;1.30;;;10.90;99.90;;;;;;4970893;28;20043;-73
2023/10/31 12:09:48;;;;;;;3.78;1.50;;;10.80;99.90;;;;;;4955246;28;20496;-73
2023/10/31 12:12:15;;;;;;;6.50;2.22;;;10.80;99.90;;;;;;4954312;28;20043;-73
2023/10/31 12:14:41;;;;;;;6.90;1.98;;;10.80;99.90;;;;;;4954850;28;20043;-73
2023/10/31 12:17:07;;;;;;;7.80;1.95;;;10.80;99.90;;;;;;4954494;28;20057;-73
2023/10/31 12:19:36;;;;;;;4.38;1.65;;;10.70;99.90;;;;;;4970927;28;20057;-73
2023/10/31 12:22:13;;;;;;;5.35;1.70;;;10.80;99.90;;;;;;4954668;28;20384;-73
2023/10/31 12:24:39;;;;;;;6.75;1.90;;;10.70;99.90;;;;;;4954826;28;20074;-73
2023/10/31 12:27:04;;;;;;;9.98;2.30;;;10.80;99.90;;;;;;4970460;28;20069;-73
2023/10/31 12:29:30;;;;;;;7.55;1.80;;;10.80;99.90;;;;;;4954771;28;20066;-73
2023/10/31 12:31:57;;;;;;;7.85;1.67;;;10.80;99.90;;;;;;4954293;28;20038;-73
2023/10/31 12:34:25;;;;;;;4.18;1.60;;;10.80;99.90;;;;;;4970720;28;20082;-73
2023/10/31 12:36:53;;;;;;;5.93;1.58;;;10.80;99.90;;;;;;4970534;28;20168;-73
2023/10/31 12:39:22;;;;;;;4.28;1.52;;;10.80;99.90;;;;;;4954540;28;20551;-73
2023/10/31 12:41:48;;;;;;;4.10;1.40;;;10.80;99.90;;;;;;4969964;28;20047;-73